sensor_id;sensor_type;location;lat;lon;timestamp;pressure;altitude;pressure_sealevel;temperature;humidity
6216;BME280;3141;49.234;9.326;2023-02-01T00:00:17;100290.22;;;8.00;78.26
6216;BME280;3141;49.234;9.326;2023-02-01T00:01:07;100293.66;;;8.01;77.96
6216;BME280;3141;49.234;9.326;2023-02-01T00:01:50;100284.00;;;7.90;78.89
6216;BME280;3141;49.234;9.326;2023-02-01T00:02:32;100289.66;;;7.86;79.31
6216;BME280;3141;49.234;9.326;2023-02-01T00:03:15;100295.69;;;8.08;78.86
6216;BME280;3141;49.234;9.326;2023-02-01T00:03:57;100292.22;;;8.08;78.33
6216;BME280;3141;49.234;9.326;2023-02-01T00:04:39;100279.78;;;7.99;78.94
6216;BME280;3141;49.234;9.326;2023-02-01T00:05:22;100297.09;;;7.81;79.42
6216;BME280;3141;49.234;9.326;2023-02-01T00:06:04;100295.38;;;8.02;78.87
6216;BME280;3141;49.234;9.326;2023-02-01T00:06:46;100292.28;;;7.97;78.44
6216;BME280;3141;49.234;9.326;2023-02-01T00:07:29;100293.25;;;7.85;79.17
6216;BME280;3141;49.234;9.326;2023-02-01T00:08:11;100290.84;;;7.93;79.06
6216;BME280;3141;49.234;9.326;2023-02-01T00:08:54;100295.09;;;8.05;78.56
6216;BME280;3141;49.234;9.326;2023-02-01T00:09:36;100292.28;;;7.86;79.13
6216;BME280;3141;49.234;9.326;2023-02-01T00:10:19;100288.19;;;7.93;79.15
6216;BME280;3141;49.234;9.326;2023-02-01T00:11:06;100293.66;;;8.01;78.58
6216;BME280;3141;49.234;9.326;2023-02-01T00:11:48;100287.75;;;8.19;77.95
6216;BME280;3141;49.234;9.326;2023-02-01T00:12:31;100282.22;;;8.23;77.56
6216;BME280;3141;49.234;9.326;2023-02-01T00:13:13;100279.47;;;7.92;78.21
6216;BME280;3141;49.234;9.326;2023-02-01T00:13:56;100277.25;;;8.08;78.30
6216;BME280;3141;49.234;9.326;2023-02-01T00:14:38;100277.72;;;8.13;78.03
6216;BME280;3141;49.234;9.326;2023-02-01T00:15:21;100279.72;;;8.21;77.52
6216;BME280;3141;49.234;9.326;2023-02-01T00:16:10;100270.28;;;8.18;77.53
6216;BME280;3141;49.234;9.326;2023-02-01T00:16:54;100274.03;;;8.05;78.04
6216;BME280;3141;49.234;9.326;2023-02-01T00:17:36;100274.53;;;7.99;78.15
6216;BME280;3141;49.234;9.326;2023-02-01T00:18:18;100269.97;;;8.01;78.43
6216;BME280;3141;49.234;9.326;2023-02-01T00:19:03;100267.22;;;8.02;78.20
6216;BME280;3141;49.234;9.326;2023-02-01T00:19:46;100262.06;;;8.01;78.43
6216;BME280;3141;49.234;9.326;2023-02-01T00:20:28;100260.56;;;7.87;79.04
6216;BME280;3141;49.234;9.326;2023-02-01T00:21:15;100259.97;;;7.84;79.21
6216;BME280;3141;49.234;9.326;2023-02-01T00:21:58;100261.84;;;8.04;78.69
6216;BME280;3141;49.234;9.326;2023-02-01T00:22:40;100266.75;;;7.97;78.68
6216;BME280;3141;49.234;9.326;2023-02-01T00:23:22;100264.22;;;8.07;78.33
6216;BME280;3141;49.234;9.326;2023-02-01T00:24:05;100265.59;;;8.22;77.64
6216;BME280;3141;49.234;9.326;2023-02-01T00:24:48;100273.44;;;8.01;78.24
6216;BME280;3141;49.234;9.326;2023-02-01T00:25:31;100273.59;;;8.00;78.41
6216;BME280;3141;49.234;9.326;2023-02-01T00:26:25;100275.69;;;8.06;78.16
6216;BME280;3141;49.234;9.326;2023-02-01T00:27:09;100282.66;;;8.07;78.05
6216;BME280;3141;49.234;9.326;2023-02-01T00:27:51;100282.41;;;8.10;78.12
6216;BME280;3141;49.234;9.326;2023-02-01T00:28:34;100273.66;;;8.09;77.74
6216;BME280;3141;49.234;9.326;2023-02-01T00:29:18;100271.72;;;8.11;77.49
6216;BME280;3141;49.234;9.326;2023-02-01T00:30:02;100271.38;;;8.16;77.39
6216;BME280;3141;49.234;9.326;2023-02-01T00:30:44;100274.88;;;8.05;77.86
6216;BME280;3141;49.234;9.326;2023-02-01T00:31:27;100267.44;;;8.10;77.58
6216;BME280;3141;49.234;9.326;2023-02-01T00:32:09;100261.84;;;8.04;77.73
6216;BME280;3141;49.234;9.326;2023-02-01T00:32:52;100262.00;;;8.23;77.68
6216;BME280;3141;49.234;9.326;2023-02-01T00:33:34;100257.69;;;8.33;77.12
6216;BME280;3141;49.234;9.326;2023-02-01T00:34:16;100259.47;;;8.21;77.30
6216;BME280;3141;49.234;9.326;2023-02-01T00:34:59;100257.22;;;8.17;77.17
6216;BME280;3141;49.234;9.326;2023-02-01T00:35:41;100259.16;;;8.26;77.11
6216;BME280;3141;49.234;9.326;2023-02-01T00:36:23;100253.16;;;8.24;76.89
6216;BME280;3141;49.234;9.326;2023-02-01T00:37:06;100265.34;;;8.25;77.22
6216;BME280;3141;49.234;9.326;2023-02-01T00:37:48;100263.75;;;8.34;77.01
6216;BME280;3141;49.234;9.326;2023-02-01T00:38:31;100253.69;;;8.07;77.45
6216;BME280;3141;49.234;9.326;2023-02-01T00:39:15;100268.78;;;8.05;78.20
6216;BME280;3141;49.234;9.326;2023-02-01T00:39:57;100254.47;;;8.18;77.24
6216;BME280;3141;49.234;9.326;2023-02-01T00:40:39;100263.69;;;8.24;77.47
6216;BME280;3141;49.234;9.326;2023-02-01T00:41:22;100263.31;;;8.29;77.09
6216;BME280;3141;49.234;9.326;2023-02-01T00:42:04;100260.72;;;8.17;76.97
6216;BME280;3141;49.234;9.326;2023-02-01T00:42:46;100268.63;;;8.17;77.58
6216;BME280;3141;49.234;9.326;2023-02-01T00:43:30;100264.75;;;8.21;77.61
6216;BME280;3141;49.234;9.326;2023-02-01T00:44:13;100258.91;;;8.18;77.73
6216;BME280;3141;49.234;9.326;2023-02-01T00:44:55;100263.25;;;8.08;77.77
6216;BME280;3141;49.234;9.326;2023-02-01T00:45:37;100264.06;;;8.19;77.50
6216;BME280;3141;49.234;9.326;2023-02-01T00:46:20;100267.88;;;8.27;77.19
6216;BME280;3141;49.234;9.326;2023-02-01T00:47:03;100264.53;;;8.25;77.01
6216;BME280;3141;49.234;9.326;2023-02-01T00:47:45;100261.59;;;8.07;77.65
6216;BME280;3141;49.234;9.326;2023-02-01T00:48:28;100265.72;;;8.20;77.63
6216;BME280;3141;49.234;9.326;2023-02-01T00:49:10;100271.78;;;8.00;77.79
6216;BME280;3141;49.234;9.326;2023-02-01T00:49:52;100260.91;;;7.94;78.50
6216;BME280;3141;49.234;9.326;2023-02-01T00:50:35;100265.06;;;8.07;78.14
6216;BME280;3141;49.234;9.326;2023-02-01T00:51:20;100260.91;;;7.94;78.22
6216;BME280;3141;49.234;9.326;2023-02-01T00:52:03;100262.19;;;8.10;78.19
6216;BME280;3141;49.234;9.326;2023-02-01T00:52:45;100250.53;;;8.13;77.86
6216;BME280;3141;49.234;9.326;2023-02-01T00:53:28;100257.38;;;8.15;77.73
6216;BME280;3141;49.234;9.326;2023-02-01T00:54:10;100256.66;;;8.13;77.69
6216;BME280;3141;49.234;9.326;2023-02-01T00:54:53;100260.59;;;8.19;77.63
6216;BME280;3141;49.234;9.326;2023-02-01T00:55:35;100248.88;;;8.12;77.54
6216;BME280;3141;49.234;9.326;2023-02-01T00:56:18;100253.16;;;8.24;77.35
6216;BME280;3141;49.234;9.326;2023-02-01T00:57:00;100247.38;;;8.30;76.89
6216;BME280;3141;49.234;9.326;2023-02-01T00:57:42;100247.91;;;8.13;77.56
6216;BME280;3141;49.234;9.326;2023-02-01T00:58:25;100245.28;;;8.13;77.71
6216;BME280;3141;49.234;9.326;2023-02-01T00:59:11;100239.31;;;8.11;77.61
6216;BME280;3141;49.234;9.326;2023-02-01T00:59:53;100236.69;;;8.11;78.06
6216;BME280;3141;49.234;9.326;2023-02-01T01:00:35;100248.28;;;8.08;77.89
6216;BME280;3141;49.234;9.326;2023-02-01T01:01:21;100243.91;;;7.98;78.06
6216;BME280;3141;49.234;9.326;2023-02-01T01:02:04;100249.91;;;7.89;78.60
6216;BME280;3141;49.234;9.326;2023-02-01T01:02:46;100248.59;;;7.94;78.47
6216;BME280;3141;49.234;9.326;2023-02-01T01:03:29;100241.38;;;8.07;78.19
6216;BME280;3141;49.234;9.326;2023-02-01T01:04:15;100246.06;;;8.04;77.98
6216;BME280;3141;49.234;9.326;2023-02-01T01:04:57;100240.44;;;7.97;78.25
6216;BME280;3141;49.234;9.326;2023-02-01T01:05:39;100241.28;;;7.98;78.27
6216;BME280;3141;49.234;9.326;2023-02-01T01:06:24;100246.16;;;8.02;78.01
6216;BME280;3141;49.234;9.326;2023-02-01T01:07:07;100248.19;;;7.99;78.24
6216;BME280;3141;49.234;9.326;2023-02-01T01:07:49;100244.38;;;8.03;77.89
6216;BME280;3141;49.234;9.326;2023-02-01T01:08:32;100255.16;;;8.00;78.44
6216;BME280;3141;49.234;9.326;2023-02-01T01:09:15;100257.59;;;7.92;78.59
6216;BME280;3141;49.234;9.326;2023-02-01T01:09:57;100257.06;;;7.98;78.43
6216;BME280;3141;49.234;9.326;2023-02-01T01:10:39;100255.63;;;7.94;78.63
6216;BME280;3141;49.234;9.326;2023-02-01T01:11:24;100252.06;;;7.95;78.29
6216;BME280;3141;49.234;9.326;2023-02-01T01:12:07;100256.63;;;7.93;78.24
6216;BME280;3141;49.234;9.326;2023-02-01T01:12:50;100258.97;;;7.96;78.11
6216;BME280;3141;49.234;9.326;2023-02-01T01:13:34;100252.84;;;8.06;78.09
6216;BME280;3141;49.234;9.326;2023-02-01T01:14:16;100254.19;;;8.01;77.98
6216;BME280;3141;49.234;9.326;2023-02-01T01:14:58;100257.06;;;7.98;78.32
6216;BME280;3141;49.234;9.326;2023-02-01T01:15:41;100264.00;;;7.99;78.31
6216;BME280;3141;49.234;9.326;2023-02-01T01:16:26;100259.25;;;7.93;78.42
6216;BME280;3141;49.234;9.326;2023-02-01T01:17:09;100259.50;;;7.90;78.84
6216;BME280;3141;49.234;9.326;2023-02-01T01:17:51;100268.13;;;7.92;78.82
6216;BME280;3141;49.234;9.326;2023-02-01T01:18:34;100261.72;;;8.05;78.38
6216;BME280;3141;49.234;9.326;2023-02-01T01:19:17;100258.72;;;7.99;78.44
6216;BME280;3141;49.234;9.326;2023-02-01T01:19:59;100264.00;;;7.99;78.34
6216;BME280;3141;49.234;9.326;2023-02-01T01:20:41;100268.94;;;7.92;78.79
6216;BME280;3141;49.234;9.326;2023-02-01T01:21:24;100259.72;;;7.87;78.78
6216;BME280;3141;49.234;9.326;2023-02-01T01:22:07;100273.59;;;8.00;78.58
6216;BME280;3141;49.234;9.326;2023-02-01T01:22:49;100265.47;;;7.92;78.62
6216;BME280;3141;49.234;9.326;2023-02-01T01:23:32;100258.91;;;7.86;78.90
6216;BME280;3141;49.234;9.326;2023-02-01T01:24:14;100264.94;;;8.09;78.40
6216;BME280;3141;49.234;9.326;2023-02-01T01:24:57;100264.09;;;8.08;78.12
6216;BME280;3141;49.234;9.326;2023-02-01T01:25:39;100259.88;;;8.17;77.61
6216;BME280;3141;49.234;9.326;2023-02-01T01:26:27;100258.50;;;8.02;78.26
6216;BME280;3141;49.234;9.326;2023-02-01T01:27:10;100257.28;;;8.06;78.16
6216;BME280;3141;49.234;9.326;2023-02-01T01:27:53;100265.25;;;8.15;77.69
6216;BME280;3141;49.234;9.326;2023-02-01T01:28:35;100268.38;;;8.09;77.93
6216;BME280;3141;49.234;9.326;2023-02-01T01:29:17;100260.94;;;8.14;77.78
6216;BME280;3141;49.234;9.326;2023-02-01T01:30:00;100266.91;;;8.16;77.45
6216;BME280;3141;49.234;9.326;2023-02-01T01:30:42;100264.00;;;7.99;77.89
6216;BME280;3141;49.234;9.326;2023-02-01T01:31:25;100274.88;;;8.05;78.16
6216;BME280;3141;49.234;9.326;2023-02-01T01:32:07;100266.63;;;7.99;78.47
6216;BME280;3141;49.234;9.326;2023-02-01T01:32:51;100262.53;;;8.06;77.86
6216;BME280;3141;49.234;9.326;2023-02-01T01:33:34;100253.81;;;8.05;78.08
6216;BME280;3141;49.234;9.326;2023-02-01T01:34:16;100255.34;;;8.08;77.75
6216;BME280;3141;49.234;9.326;2023-02-01T01:34:58;100261.34;;;8.10;77.85
6216;BME280;3141;49.234;9.326;2023-02-01T01:35:41;100262.44;;;8.07;77.65
6216;BME280;3141;49.234;9.326;2023-02-01T01:36:24;100261.41;;;7.88;78.43
6216;BME280;3141;49.234;9.326;2023-02-01T01:37:06;100268.56;;;7.97;78.54
6216;BME280;3141;49.234;9.326;2023-02-01T01:37:49;100265.69;;;8.00;78.25
6216;BME280;3141;49.234;9.326;2023-02-01T01:38:31;100264.16;;;8.18;77.65
6216;BME280;3141;49.234;9.326;2023-02-01T01:39:13;100265.75;;;8.09;77.65
6216;BME280;3141;49.234;9.326;2023-02-01T01:39:55;100261.25;;;8.32;76.83
6216;BME280;3141;49.234;9.326;2023-02-01T01:40:39;100259.84;;;8.28;76.89
6216;BME280;3141;49.234;9.326;2023-02-01T01:41:24;100265.44;;;8.35;76.78
6216;BME280;3141;49.234;9.326;2023-02-01T01:42:10;100261.78;;;8.26;76.82
6216;BME280;3141;49.234;9.326;2023-02-01T01:42:54;100255.00;;;8.12;77.33
6216;BME280;3141;49.234;9.326;2023-02-01T01:45:40;100253.16;;;8.24;77.18
6216;BME280;3141;49.234;9.326;2023-02-01T01:46:25;100250.72;;;8.32;76.83
6216;BME280;3141;49.234;9.326;2023-02-01T01:47:08;100253.22;;;8.34;76.81
6216;BME280;3141;49.234;9.326;2023-02-01T01:47:54;100255.50;;;8.38;76.65
6216;BME280;3141;49.234;9.326;2023-02-01T01:48:37;100243.09;;;8.29;76.69
6216;BME280;3141;49.234;9.326;2023-02-01T01:49:23;100247.22;;;8.11;77.52
6216;BME280;3141;49.234;9.326;2023-02-01T01:50:10;100244.31;;;8.14;77.64
6216;BME280;3141;49.234;9.326;2023-02-01T01:51:07;100240.72;;;8.26;77.37
6216;BME280;3141;49.234;9.326;2023-02-01T01:51:54;100237.09;;;8.27;76.99
6216;BME280;3141;49.234;9.326;2023-02-01T01:52:38;100239.88;;;8.26;77.07
6216;BME280;3141;49.234;9.326;2023-02-01T01:53:27;100241.69;;;8.14;77.45
6216;BME280;3141;49.234;9.326;2023-02-01T01:54:17;100239.34;;;8.00;78.08
6216;BME280;3141;49.234;9.326;2023-02-01T01:55:00;100244.81;;;8.08;78.17
6216;BME280;3141;49.234;9.326;2023-02-01T01:55:43;100241.09;;;8.10;78.02
6216;BME280;3141;49.234;9.326;2023-02-01T01:56:28;100240.09;;;8.23;77.73
6216;BME280;3141;49.234;9.326;2023-02-01T01:57:34;100243.09;;;8.18;77.33
6216;BME280;3141;49.234;9.326;2023-02-01T01:58:19;100242.50;;;8.14;77.54
6216;BME280;3141;49.234;9.326;2023-02-01T01:59:04;100232.41;;;7.99;78.01
6216;BME280;3141;49.234;9.326;2023-02-01T01:59:51;100242.91;;;8.10;78.12
6216;BME280;3141;49.234;9.326;2023-02-01T02:00:36;100232.31;;;8.21;77.51
6216;BME280;3141;49.234;9.326;2023-02-01T02:01:19;100234.75;;;8.13;77.58
6216;BME280;3141;49.234;9.326;2023-02-01T02:02:01;100237.59;;;8.21;77.58
6216;BME280;3141;49.234;9.326;2023-02-01T02:02:46;100225.81;;;8.04;77.83
6216;BME280;3141;49.234;9.326;2023-02-01T02:03:33;100223.09;;;7.95;78.40
6216;BME280;3141;49.234;9.326;2023-02-01T02:04:18;100232.25;;;7.80;78.97
6216;BME280;3141;49.234;9.326;2023-02-01T02:05:00;100235.81;;;7.90;78.94
6216;BME280;3141;49.234;9.326;2023-02-01T02:05:43;100232.88;;;8.04;78.22
6216;BME280;3141;49.234;9.326;2023-02-01T02:06:37;100243.00;;;8.19;77.56
6216;BME280;3141;49.234;9.326;2023-02-01T02:07:34;100238.53;;;8.31;76.72
6216;BME280;3141;49.234;9.326;2023-02-01T02:08:18;100236.38;;;8.25;76.96
6216;BME280;3141;49.234;9.326;2023-02-01T02:09:03;100238.53;;;8.31;76.78
6216;BME280;3141;49.234;9.326;2023-02-01T02:09:46;100233.13;;;8.33;76.74
6216;BME280;3141;49.234;9.326;2023-02-01T02:10:28;100229.91;;;8.29;76.72
6216;BME280;3141;49.234;9.326;2023-02-01T02:11:34;100232.94;;;8.13;77.25
6216;BME280;3141;49.234;9.326;2023-02-01T02:12:16;100222.53;;;8.12;77.34
6216;BME280;3141;49.234;9.326;2023-02-01T02:12:58;100219.78;;;8.13;77.43
6216;BME280;3141;49.234;9.326;2023-02-01T02:13:42;100220.78;;;8.01;78.03
6216;BME280;3141;49.234;9.326;2023-02-01T02:14:26;100225.00;;;8.04;78.07
6216;BME280;3141;49.234;9.326;2023-02-01T02:15:10;100208.25;;;7.94;78.16
6216;BME280;3141;49.234;9.326;2023-02-01T02:18:32;100215.41;;;8.03;77.78
6216;BME280;3141;49.234;9.326;2023-02-01T02:21:53;100222.84;;;8.30;77.28
6216;BME280;3141;49.234;9.326;2023-02-01T02:27:17;100219.47;;;8.39;76.49
6216;BME280;3141;49.234;9.326;2023-02-01T02:29:46;100208.50;;;8.23;76.63
6216;BME280;3141;49.234;9.326;2023-02-01T02:30:40;100212.47;;;8.17;76.88
6216;BME280;3141;49.234;9.326;2023-02-01T02:34:52;100199.41;;;8.47;76.11
6216;BME280;3141;49.234;9.326;2023-02-01T02:36:14;100201.50;;;8.53;75.72
6216;BME280;3141;49.234;9.326;2023-02-01T02:37:22;100205.00;;;8.22;76.82
6216;BME280;3141;49.234;9.326;2023-02-01T02:38:30;100214.41;;;8.36;76.79
6216;BME280;3141;49.234;9.326;2023-02-01T02:39:23;100220.44;;;8.27;76.95
6216;BME280;3141;49.234;9.326;2023-02-01T02:41:19;100207.34;;;8.15;77.46
6216;BME280;3141;49.234;9.326;2023-02-01T02:42:39;100205.00;;;8.01;77.95
6216;BME280;3141;49.234;9.326;2023-02-01T02:43:48;100204.50;;;8.07;77.87
6216;BME280;3141;49.234;9.326;2023-02-01T02:45:03;100195.19;;;8.03;77.69
6216;BME280;3141;49.234;9.326;2023-02-01T02:46:15;100194.78;;;8.08;77.99
6216;BME280;3141;49.234;9.326;2023-02-01T02:47:26;100190.53;;;8.28;77.51
6216;BME280;3141;49.234;9.326;2023-02-01T02:48:29;100192.69;;;8.23;77.55
6216;BME280;3141;49.234;9.326;2023-02-01T02:49:22;100187.09;;;8.16;77.68
6216;BME280;3141;49.234;9.326;2023-02-01T02:51:25;100180.91;;;8.06;78.07
6216;BME280;3141;49.234;9.326;2023-02-01T02:52:28;100187.41;;;8.23;77.71
6216;BME280;3141;49.234;9.326;2023-02-01T02:53:50;100183.75;;;8.14;77.94
6216;BME280;3141;49.234;9.326;2023-02-01T02:54:54;100187.34;;;8.13;77.78
6216;BME280;3141;49.234;9.326;2023-02-01T02:55:38;100178.09;;;7.98;78.38
6216;BME280;3141;49.234;9.326;2023-02-01T02:56:24;100181.25;;;8.12;77.88
6216;BME280;3141;49.234;9.326;2023-02-01T02:57:46;100173.22;;;8.14;77.71
6216;BME280;3141;49.234;9.326;2023-02-01T02:58:48;100173.41;;;8.22;77.56
6216;BME280;3141;49.234;9.326;2023-02-01T02:59:48;100160.59;;;8.29;77.38
6216;BME280;3141;49.234;9.326;2023-02-01T03:00:50;100169.78;;;8.34;77.07
6216;BME280;3141;49.234;9.326;2023-02-01T03:01:52;100170.03;;;8.31;76.97
6216;BME280;3141;49.234;9.326;2023-02-01T03:02:54;100165.63;;;8.20;77.45
6216;BME280;3141;49.234;9.326;2023-02-01T03:03:54;100166.13;;;8.14;77.88
6216;BME280;3141;49.234;9.326;2023-02-01T03:04:56;100166.63;;;8.19;77.50
6216;BME280;3141;49.234;9.326;2023-02-01T03:05:46;100166.50;;;8.21;77.41
6216;BME280;3141;49.234;9.326;2023-02-01T03:06:32;100162.81;;;8.12;77.66
6216;BME280;3141;49.234;9.326;2023-02-01T03:08:42;100154.53;;;8.17;77.25
6216;BME280;3141;49.234;9.326;2023-02-01T03:09:31;100155.59;;;8.26;77.04
6216;BME280;3141;49.234;9.326;2023-02-01T03:10:35;100155.44;;;8.27;76.93
6216;BME280;3141;49.234;9.326;2023-02-01T03:11:20;100157.59;;;8.01;77.53
6216;BME280;3141;49.234;9.326;2023-02-01T03:12:08;100150.91;;;7.97;78.16
6216;BME280;3141;49.234;9.326;2023-02-01T03:13:19;100161.53;;;8.07;78.27
6216;BME280;3141;49.234;9.326;2023-02-01T03:14:03;100159.09;;;8.15;77.45
6216;BME280;3141;49.234;9.326;2023-02-01T03:14:51;100161.44;;;8.18;77.58
6216;BME280;3141;49.234;9.326;2023-02-01T03:15:50;100150.47;;;8.13;77.59
6216;BME280;3141;49.234;9.326;2023-02-01T03:16:37;100158.50;;;8.11;77.79
6216;BME280;3141;49.234;9.326;2023-02-01T03:17:29;100163.13;;;8.19;77.34
6216;BME280;3141;49.234;9.326;2023-02-01T03:18:42;100164.09;;;8.18;77.45
6216;BME280;3141;49.234;9.326;2023-02-01T03:19:33;100168.53;;;8.17;77.24
6216;BME280;3141;49.234;9.326;2023-02-01T03:20:18;100171.09;;;8.08;77.32
6216;BME280;3141;49.234;9.326;2023-02-01T03:21:07;100176.22;;;8.09;77.52
6216;BME280;3141;49.234;9.326;2023-02-01T03:21:59;100175.88;;;8.14;77.33
6216;BME280;3141;49.234;9.326;2023-02-01T03:22:43;100175.66;;;8.06;77.81
6216;BME280;3141;49.234;9.326;2023-02-01T03:23:30;100179.56;;;8.11;77.59
6216;BME280;3141;49.234;9.326;2023-02-01T03:25:09;100180.22;;;8.04;77.77
6216;BME280;3141;49.234;9.326;2023-02-01T03:25:54;100177.78;;;7.91;78.55
6216;BME280;3141;49.234;9.326;2023-02-01T03:26:43;100180.84;;;7.96;78.32
6216;BME280;3141;49.234;9.326;2023-02-01T03:27:34;100181.56;;;7.98;78.21
6216;BME280;3141;49.234;9.326;2023-02-01T03:28:19;100190.75;;;8.04;78.01
6216;BME280;3141;49.234;9.326;2023-02-01T03:29:12;100191.22;;;8.09;77.84
6216;BME280;3141;49.234;9.326;2023-02-01T03:30:10;100201.47;;;8.12;77.70
6216;BME280;3141;49.234;9.326;2023-02-01T03:30:53;100179.75;;;7.99;78.61
6216;BME280;3141;49.234;9.326;2023-02-01T03:31:35;100184.78;;;8.02;78.43
6216;BME280;3141;49.234;9.326;2023-02-01T03:32:18;100195.06;;;8.05;77.96
6216;BME280;3141;49.234;9.326;2023-02-01T03:33:04;100189.22;;;8.22;77.60
6216;BME280;3141;49.234;9.326;2023-02-01T03:33:53;100186.13;;;8.28;77.05
6216;BME280;3141;49.234;9.326;2023-02-01T03:34:36;100187.09;;;8.16;77.66
6216;BME280;3141;49.234;9.326;2023-02-01T03:35:22;100187.78;;;8.29;77.02
6216;BME280;3141;49.234;9.326;2023-02-01T03:36:16;100180.41;;;8.12;77.50
6216;BME280;3141;49.234;9.326;2023-02-01T03:37:07;100185.28;;;8.16;77.66
6216;BME280;3141;49.234;9.326;2023-02-01T03:37:53;100184.84;;;8.11;77.62
6216;BME280;3141;49.234;9.326;2023-02-01T03:38:45;100175.72;;;8.15;77.74
6216;BME280;3141;49.234;9.326;2023-02-01T03:39:38;100176.31;;;8.19;77.76
6216;BME280;3141;49.234;9.326;2023-02-01T03:40:22;100178.34;;;8.15;77.89
6216;BME280;3141;49.234;9.326;2023-02-01T03:41:11;100177.22;;;8.29;76.86
6216;BME280;3141;49.234;9.326;2023-02-01T03:41:58;100175.34;;;8.20;77.69
6216;BME280;3141;49.234;9.326;2023-02-01T03:42:48;100180.31;;;8.34;77.42
6216;BME280;3141;49.234;9.326;2023-02-01T03:43:38;100174.72;;;8.28;77.06
6216;BME280;3141;49.234;9.326;2023-02-01T03:44:32;100178.84;;;8.41;76.99
6216;BME280;3141;49.234;9.326;2023-02-01T03:45:23;100179.16;;;8.27;77.04
6216;BME280;3141;49.234;9.326;2023-02-01T03:46:12;100179.44;;;8.13;77.74
6216;BME280;3141;49.234;9.326;2023-02-01T03:46:59;100183.50;;;8.17;78.14
6216;BME280;3141;49.234;9.326;2023-02-01T03:47:48;100172.94;;;8.28;77.33
6216;BME280;3141;49.234;9.326;2023-02-01T03:48:32;100181.72;;;8.38;77.13
6216;BME280;3141;49.234;9.326;2023-02-01T03:49:26;100182.88;;;8.45;76.47
6216;BME280;3141;49.234;9.326;2023-02-01T03:50:12;100184.78;;;8.64;76.01
6216;BME280;3141;49.234;9.326;2023-02-01T03:51:00;100175.50;;;8.39;76.44
6216;BME280;3141;49.234;9.326;2023-02-01T03:51:46;100178.25;;;8.38;76.72
6216;BME280;3141;49.234;9.326;2023-02-01T03:52:36;100178.38;;;8.36;77.01
6216;BME280;3141;49.234;9.326;2023-02-01T03:53:22;100171.19;;;8.38;76.81
6216;BME280;3141;49.234;9.326;2023-02-01T03:54:06;100175.63;;;8.38;76.60
6216;BME280;3141;49.234;9.326;2023-02-01T03:54:51;100175.94;;;8.24;77.33
6216;BME280;3141;49.234;9.326;2023-02-01T03:55:34;100172.38;;;8.13;77.82
6216;BME280;3141;49.234;9.326;2023-02-01T03:56:18;100172.94;;;8.28;77.47
6216;BME280;3141;49.234;9.326;2023-02-01T03:57:08;100178.13;;;8.39;76.98
6216;BME280;3141;49.234;9.326;2023-02-01T03:57:56;100169.28;;;8.40;76.91
6216;BME280;3141;49.234;9.326;2023-02-01T03:58:39;100170.31;;;8.28;77.07
6216;BME280;3141;49.234;9.326;2023-02-01T03:59:22;100166.44;;;8.32;77.07
6216;BME280;3141;49.234;9.326;2023-02-01T04:00:14;100167.00;;;8.36;77.21
6216;BME280;3141;49.234;9.326;2023-02-01T04:00:58;100175.94;;;8.44;76.55
6216;BME280;3141;49.234;9.326;2023-02-01T04:01:41;100175.28;;;8.52;76.45
6216;BME280;3141;49.234;9.326;2023-02-01T04:02:23;100173.50;;;8.52;76.44
6216;BME280;3141;49.234;9.326;2023-02-01T04:03:07;100166.88;;;8.37;76.67
6216;BME280;3141;49.234;9.326;2023-02-01T04:03:49;100178.94;;;8.19;77.40
6216;BME280;3141;49.234;9.326;2023-02-01T04:04:34;100176.00;;;8.12;77.95
6216;BME280;3141;49.234;9.326;2023-02-01T04:05:17;100169.72;;;8.25;77.61
6216;BME280;3141;49.234;9.326;2023-02-01T04:05:59;100173.56;;;8.41;77.08
6216;BME280;3141;49.234;9.326;2023-02-01T04:06:41;100179.22;;;8.57;76.45
6216;BME280;3141;49.234;9.326;2023-02-01T04:07:24;100179.28;;;8.46;76.37
6216;BME280;3141;49.234;9.326;2023-02-01T04:08:06;100184.34;;;8.17;77.58
6216;BME280;3141;49.234;9.326;2023-02-01T04:08:49;100178.31;;;8.27;77.63
6216;BME280;3141;49.234;9.326;2023-02-01T04:09:31;100173.88;;;8.27;77.42
6216;BME280;3141;49.234;9.326;2023-02-01T04:10:13;100178.56;;;8.24;77.33
6216;BME280;3141;49.234;9.326;2023-02-01T04:10:56;100175.63;;;8.38;77.28
6216;BME280;3141;49.234;9.326;2023-02-01T04:11:38;100175.44;;;8.50;76.97
6216;BME280;3141;49.234;9.326;2023-02-01T04:12:20;100185.63;;;8.64;76.15
6216;BME280;3141;49.234;9.326;2023-02-01T04:13:03;100184.78;;;8.64;75.86
6216;BME280;3141;49.234;9.326;2023-02-01T04:13:45;100191.69;;;8.55;76.16
6216;BME280;3141;49.234;9.326;2023-02-01T04:14:27;100188.91;;;8.57;75.85
6216;BME280;3141;49.234;9.326;2023-02-01T04:15:10;100186.13;;;8.58;76.16
6216;BME280;3141;49.234;9.326;2023-02-01T04:15:52;100184.53;;;8.46;76.35
6216;BME280;3141;49.234;9.326;2023-02-01T04:16:35;100192.88;;;8.51;76.26
6216;BME280;3141;49.234;9.326;2023-02-01T04:17:17;100180.25;;;8.45;76.54
6216;BME280;3141;49.234;9.326;2023-02-01T04:18:01;100180.75;;;8.39;77.03
6216;BME280;3141;49.234;9.326;2023-02-01T04:18:43;100187.84;;;8.39;77.33
6216;BME280;3141;49.234;9.326;2023-02-01T04:19:25;100184.81;;;8.43;77.07
6216;BME280;3141;49.234;9.326;2023-02-01T04:20:08;100173.88;;;8.48;76.58
6216;BME280;3141;49.234;9.326;2023-02-01T04:20:51;100181.31;;;8.63;76.33
6216;BME280;3141;49.234;9.326;2023-02-01T04:21:33;100179.66;;;8.62;76.09
6216;BME280;3141;49.234;9.326;2023-02-01T04:22:15;100179.06;;;8.59;76.03
6216;BME280;3141;49.234;9.326;2023-02-01T04:22:58;100172.19;;;8.67;75.81
6216;BME280;3141;49.234;9.326;2023-02-01T04:23:40;100165.75;;;8.60;75.91
6216;BME280;3141;49.234;9.326;2023-02-01T04:24:22;100174.19;;;8.54;76.24
6216;BME280;3141;49.234;9.326;2023-02-01T04:25:05;100168.31;;;8.71;75.87
6216;BME280;3141;49.234;9.326;2023-02-01T04:25:48;100173.38;;;8.54;76.16
6216;BME280;3141;49.234;9.326;2023-02-01T04:26:30;100174.88;;;8.56;76.45
6216;BME280;3141;49.234;9.326;2023-02-01T04:27:12;100162.03;;;8.42;76.53
6216;BME280;3141;49.234;9.326;2023-02-01T04:27:55;100163.53;;;8.56;76.27
6216;BME280;3141;49.234;9.326;2023-02-01T04:28:37;100167.63;;;8.69;75.46
6216;BME280;3141;49.234;9.326;2023-02-01T04:29:19;100163.53;;;8.56;75.70
6216;BME280;3141;49.234;9.326;2023-02-01T04:30:04;100158.25;;;8.56;75.88
6216;BME280;3141;49.234;9.326;2023-02-01T04:30:46;100159.94;;;8.66;75.51
6216;BME280;3141;49.234;9.326;2023-02-01T04:31:28;100161.56;;;8.58;75.35
6216;BME280;3141;49.234;9.326;2023-02-01T04:32:11;100159.41;;;8.63;75.63
6216;BME280;3141;49.234;9.326;2023-02-01T04:32:53;100164.28;;;8.67;75.22
6216;BME280;3141;49.234;9.326;2023-02-01T04:33:35;100164.53;;;8.64;75.40